Terminal Aerodrome Forecast
Issued by NWS

Home | Current Version | Previous Version | Text Only | Print | Product List | Glossary On
Versions: 1 2 3 4 5 6 7 8 9 10 11 12 13 14 15 16 17 18 19 20 21 22 23 24 25 26 27 28 29 30 31 32 33
000
FTUS46 KLOX 231300 AAA
TAFLAX
TAF AMD
KLAX 231351Z 2314/2418 VRB03KT P6SM SCT019
     FM231600 15006KT P6SM SCT020
     FM231800 24007KT P6SM SCT250
     FM232100 26013KT P6SM SCT250
     FM240300 25007KT P6SM BKN012
     FM240500 VRB05KT P6SM OVC010
     FM241100 VRB03KT P6SM OVC015
     FM241730 VRB05KT P6SM SCT020=

USA.gov is the U.S. government's official web portal to all federal, state and local government web resources and services.